Time;durP1;ratioP1;P1;durP2;ratioP2;P2;SDS_P1;SDS_P2;PMS_P1;PMS_P2;Temp;Humidity;BMP_temperature;BMP_pressure;BME280_temperature;BME280_humidity;BME280_pressure;Samples;Min_cycle;Max_cycle;Signal;HPM_P1;HPM_P2
2021/12/14 05:01:45;;;;;;;9.90;8.27;;;;;;;0.37;100.00;95287.72;5990364;23;20112;-80
2021/12/14 05:04:17;;;;;;;11.48;10.20;;;;;;;0.14;100.00;95260.41;4941817;29;20115;-81
2021/12/14 05:07:14;;;;;;;20.38;16.00;;;;;;;0.02;100.00;95259.47;4960800;29;20046;-81
2021/12/14 05:09:36;;;;;;;11.63;10.50;;;;;;;0.14;100.00;95251.03;4947142;29;20043;-81
2021/12/14 05:12:09;;;;;;;10.57;9.57;;;;;;;0.08;100.00;95261.63;4945018;29;20012;-81
2021/12/14 05:14:37;;;;;;;11.48;9.73;;;;;;;0.09;100.00;95254.81;4930179;29;20038;-82
2021/12/14 05:17:07;;;;;;;10.95;9.95;;;;;;;0.16;100.00;95256.81;4938847;29;20095;-79
2021/12/14 05:19:35;;;;;;;12.13;10.90;;;;;;;0.16;100.00;95254.28;4940119;29;20044;-81
2021/12/14 05:22:08;;;;;;;12.88;11.15;;;;;;;0.28;100.00;95270.50;4909575;29;20013;-80
2021/12/14 05:24:37;;;;;;;12.10;10.85;;;;;;;0.15;100.00;95257.75;4920541;29;20035;-81
2021/12/14 05:27:04;;;;;;;15.05;11.35;;;;;;;0.16;100.00;95264.47;4922763;29;20040;-82
2021/12/14 05:29:31;;;;;;;10.93;9.82;;;;;;;0.13;100.00;95274.84;4908209;29;20017;-82
2021/12/14 05:31:58;;;;;;;10.45;9.45;;;;;;;-0.02;100.00;95263.13;4905354;29;20013;-81
2021/12/14 05:34:27;;;;;;;10.63;9.63;;;;;;;0.12;100.00;95264.78;4907380;29;20008;-81
2021/12/14 05:36:53;;;;;;;10.88;9.77;;;;;;;0.07;100.00;95265.06;4907715;29;20028;-83
2021/12/14 05:44:37;;;;;;;9.65;8.75;;;;;;;0.31;100.00;95301.66;4908225;29;20046;-81
2021/12/14 05:47:10;;;;;;;9.95;9.05;;;;;;;0.21;100.00;95269.25;4918015;29;20043;-80
2021/12/14 05:49:37;;;;;;;9.73;8.82;;;;;;;0.24;100.00;95271.59;4900074;29;20052;-80
2021/12/14 05:52:08;;;;;;;11.70;10.55;;;;;;;0.53;100.00;95324.81;4921938;29;20032;-82
2021/12/14 05:54:35;;;;;;;11.35;9.02;;;;;;;0.20;100.00;95288.81;4906211;29;20009;-81
2021/12/14 05:57:03;;;;;;;11.65;10.40;;;;;;;0.17;100.00;95283.91;4919904;29;20028;-80
2021/12/14 05:59:31;;;;;;;10.43;9.45;;;;;;;0.37;100.00;95310.63;4922976;29;20245;-81
2021/12/14 06:01:58;;;;;;;12.10;10.77;;;;;;;0.19;100.00;95279.56;4923288;29;20067;-80
2021/12/14 06:04:30;;;;;;;12.25;10.88;;;;;;;0.26;100.00;95292.69;4923730;29;20052;-82
2021/12/14 06:06:56;;;;;;;11.05;9.95;;;;;;;0.18;100.00;95303.38;4910712;29;20008;-82
2021/12/14 06:09:27;;;;;;;10.70;9.65;;;;;;;0.27;100.00;95294.31;4940594;29;20071;-82
2021/12/14 06:11:57;;;;;;;13.55;10.23;;;;;;;0.27;100.00;95305.31;4942257;29;20039;-81
2021/12/14 06:14:26;;;;;;;15.43;11.70;;;;;;;0.19;100.00;95299.13;4910072;29;20048;-81
2021/12/14 06:16:56;;;;;;;12.70;10.60;;;;;;;0.15;100.00;95295.13;4939627;29;20032;-81
2021/12/14 06:19:29;;;;;;;12.57;11.20;;;;;;;0.35;100.00;95313.25;4925488;29;20051;-82
2021/12/14 06:21:58;;;;;;;11.60;10.45;;;;;;;0.33;100.00;95302.38;4908974;29;20044;-81
2021/12/14 06:24:27;;;;;;;13.25;11.85;;;;;;;0.37;100.00;95318.28;4925896;29;20028;-81
2021/12/14 06:26:54;;;;;;;15.13;11.50;;;;;;;0.49;100.00;95333.56;4909614;29;20064;-81
2021/12/14 06:29:26;;;;;;;13.18;11.77;;;;;;;0.35;100.00;95313.25;4925559;29;20051;-82
2021/12/14 06:31:52;;;;;;;15.63;12.75;;;;;;;0.46;100.00;95323.56;4925153;29;20038;-81
2021/12/14 06:34:29;;;;;;;14.75;11.90;;;;;;;0.58;100.00;95352.50;4925843;29;20012;-81
2021/12/14 06:37:04;;;;;;;14.75;11.70;;;;;;;0.65;100.00;95358.03;4924841;29;20027;-81
2021/12/14 06:39:31;;;;;;;13.25;11.90;;;;;;;0.28;100.00;95322.25;4941419;29;20039;-82
2021/12/14 06:42:07;;;;;;;12.93;11.63;;;;;;;0.63;100.00;95360.69;4924775;29;20116;-82
2021/12/14 06:44:33;;;;;;;15.45;12.38;;;;;;;0.46;100.00;95340.59;4909688;29;20042;-82
2021/12/14 06:46:58;;;;;;;17.55;12.57;;;;;;;0.41;100.00;95333.25;4924603;29;20040;-81
2021/12/14 06:49:24;;;;;;;18.20;12.70;;;;;;;0.50;100.00;95342.84;4898764;29;20043;-80
2021/12/14 06:51:54;;;;;;;17.58;12.73;;;;;;;0.55;100.00;95354.47;4916529;29;20541;-80
2021/12/14 06:54:23;;;;;;;13.93;11.97;;;;;;;0.44;100.00;95333.06;4919519;29;20076;-80
2021/12/14 06:56:51;;;;;;;16.98;12.45;;;;;;;0.56;100.00;95358.63;4917701;29;20253;-81
2021/12/14 06:59:20;;;;;;;18.38;14.30;;;;;;;0.50;100.00;95347.13;4919231;29;20095;-81
2021/12/14 07:01:52;;;;;;;16.98;13.85;;;;;;;0.57;100.00;95360.28;4922775;29;20024;-80
2021/12/14 07:04:25;;;;;;;14.88;13.15;;;;;;;0.87;100.00;95383.72;4919995;29;20040;-81
2021/12/14 07:06:57;;;;;;;16.00;13.20;;;;;;;0.53;100.00;95335.00;4905739;29;20108;-82
2021/12/14 07:09:27;;;;;;;16.83;13.52;;;;;;;0.57;100.00;95350.09;4905843;29;20023;-81
2021/12/14 07:12:13;;;;;;;20.45;15.32;;;;;;;0.82;100.00;95383.22;4922132;29;20144;-82
2021/12/14 07:14:58;;;;;;;17.30;13.95;;;;;;;0.77;100.00;95380.16;4906103;29;20069;-81
2021/12/14 07:17:29;;;;;;;20.80;16.33;;;;;;;0.71;100.00;95367.81;4905958;29;20103;-81
2021/12/14 07:20:05;;;;;;;21.67;16.10;;;;;;;0.71;100.00;95360.16;4905999;29;20029;-82
2021/12/14 07:22:40;;;;;;;15.02;13.35;;;;;;;0.80;100.00;95379.97;4921827;29;20020;-82
2021/12/14 07:25:15;;;;;;;22.83;16.70;;;;;;;0.85;100.00;95390.66;4904534;29;20104;-81
2021/12/14 07:33:29;;;;;;;20.80;15.50;;;;;;;0.73;100.00;95346.44;4997577;23;20074;-81
2021/12/14 07:36:05;;;;;;;23.20;16.50;;;;;;;0.70;100.00;95354.28;4932354;29;20047;-82
2021/12/14 07:38:38;;;;;;;19.05;15.73;;;;;;;1.06;100.00;95396.88;4958307;29;20095;-82
2021/12/14 07:43:54;;;;;;;21.38;16.15;;;;;;;0.78;100.00;95377.50;5502332;23;19926;-81
2021/12/14 07:46:26;;;;;;;20.38;14.90;;;;;;;0.87;100.00;95401.56;4961373;28;20054;-82
2021/12/14 07:48:55;;;;;;;20.48;15.25;;;;;;;0.72;100.00;95367.72;4978873;28;20079;-81
2021/12/14 07:51:22;;;;;;;19.73;15.30;;;;;;;0.94;100.00;95397.69;4946300;29;20023;-82
2021/12/14 07:53:52;;;;;;;18.33;14.18;;;;;;;1.01;100.00;95388.72;4948633;29;20302;-81
2021/12/14 07:56:31;;;;;;;22.60;15.70;;;;;;;0.94;100.00;95364.56;4961471;29;20011;-82
2021/12/14 07:58:58;;;;;;;19.73;16.52;;;;;;;0.99;100.00;95381.19;4961751;28;20031;-82
2021/12/14 08:01:24;;;;;;;23.60;17.33;;;;;;;0.86;100.00;95370.19;4962046;29;20090;-82
2021/12/14 08:04:05;;;;;;;22.25;17.42;;;;;;;0.95;100.00;95405.25;4961558;29;20059;-81
2021/12/14 08:06:51;;;;;;;;;;;;;;;1.24;100.00;95412.69;4962173;28;20086;-82
2021/12/14 08:09:34;;;;;;;22.63;17.50;;;;;;;1.09;100.00;95361.00;4942675;29;19938;-82
2021/12/14 08:12:02;;;;;;;23.95;17.38;;;;;;;1.17;100.00;95393.63;4912470;29;20123;-80
2021/12/14 08:14:29;;;;;;;22.05;17.88;;;;;;;1.14;100.00;95381.88;4950026;29;20091;-81
2021/12/14 08:16:54;;;;;;;23.90;17.70;;;;;;;1.26;100.00;95400.63;4949204;29;20032;-81
2021/12/14 08:19:31;;;;;;;26.92;18.85;;;;;;;0.83;100.00;95365.28;5479679;23;20047;-81
2021/12/14 08:22:00;;;;;;;23.90;18.42;;;;;;;1.32;100.00;95415.53;4955146;29;20040;-82
2021/12/14 08:24:26;;;;;;;23.67;17.10;;;;;;;1.21;100.00;95372.91;4930113;29;20083;-82
2021/12/14 08:26:56;;;;;;;17.10;15.27;;;;;;;1.27;100.00;95369.13;4949359;29;20323;-82
2021/12/14 08:29:24;;;;;;;21.80;16.08;;;;;;;1.53;100.00;95403.88;4954704;29;20051;-82
2021/12/14 08:32:04;;;;;;;21.00;17.48;;;;;;;1.37;100.00;95383.72;4944475;29;20052;-83
2021/12/14 08:34:33;;;;;;;22.02;18.23;;;;;;;1.30;100.00;95364.63;4940091;29;20020;-82
2021/12/14 08:37:15;;;;;;;22.17;17.75;;;;;;;1.26;100.00;95368.31;4940428;29;20069;-83
2021/12/14 08:39:46;;;;;;;24.65;19.20;;;;;;;1.35;100.00;95372.78;4957661;28;20032;-82
2021/12/14 08:42:19;;;;;;;24.48;19.08;;;;;;;1.51;100.00;95382.72;4962246;29;20047;-82
2021/12/14 08:44:54;;;;;;;25.52;19.17;;;;;;;1.37;100.00;95372.69;4946345;29;20046;-81
2021/12/14 08:47:23;;;;;;;26.75;21.08;;;;;;;1.44;100.00;95367.06;5213953;23;20047;-81
2021/12/14 08:49:49;;;;;;;25.63;19.42;;;;;;;1.47;100.00;95361.75;4965085;28;20039;-81
2021/12/14 08:52:15;;;;;;;24.75;19.55;;;;;;;1.56;100.00;95350.91;4980720;29;20070;-81
2021/12/14 08:54:41;;;;;;;22.58;18.20;;;;;;;1.53;100.00;95351.13;4939525;29;20027;-81
2021/12/14 08:57:35;;;;;;;21.15;18.52;;;;;;;1.66;100.00;95342.59;4941688;29;20060;-79
2021/12/14 09:00:12;;;;;;;24.73;18.55;;;;;;;1.93;100.00;95338.09;4941890;29;20083;-80
2021/12/14 09:02:39;;;;;;;23.17;18.30;;;;;;;2.09;100.00;95349.66;4942324;29;20092;-81
2021/12/14 09:05:12;;;;;;;22.63;18.98;;;;;;;1.72;100.00;95326.84;4943525;29;20020;-81
2021/12/14 09:07:39;;;;;;;22.20;17.30;;;;;;;1.73;100.00;95321.66;4944884;29;20015;-81
2021/12/14 09:10:09;;;;;;;26.65;18.73;;;;;;;1.56;100.00;95315.19;4945395;29;20088;-82
2021/12/14 09:12:41;;;;;;;33.60;21.23;;;;;;;1.54;100.00;95327.22;4946130;29;20024;-81
2021/12/14 09:15:12;;;;;;;27.90;20.73;;;;;;;1.59;100.00;95319.25;4959249;29;20020;-81
2021/12/14 09:17:38;;;;;;;24.60;19.55;;;;;;;1.59;100.00;95322.63;4945624;29;20044;-82
2021/12/14 09:20:17;;;;;;;25.08;19.45;;;;;;;1.71;100.00;95320.09;4929391;29;20015;-82
2021/12/14 09:22:49;;;;;;;24.80;20.35;;;;;;;1.94;100.00;95355.88;4940148;29;20036;-80
2021/12/14 09:25:18;;;;;;;24.45;19.02;;;;;;;1.96;100.00;95340.41;4943677;29;20087;-81
2021/12/14 09:27:44;;;;;;;28.38;21.27;;;;;;;1.94;100.00;95334.63;4961094;29;20031;-81
2021/12/14 09:30:13;;;;;;;25.65;19.48;;;;;;;1.87;100.00;95302.78;4924264;29;20035;-80
2021/12/14 09:32:39;;;;;;;26.23;19.60;;;;;;;2.03;100.00;95314.34;4936937;29;20004;-80
2021/12/14 09:35:16;;;;;;;28.48;20.27;;;;;;;2.10;100.00;95330.88;4950191;29;20032;-81
2021/12/14 09:37:41;;;;;;;29.30;20.15;;;;;;;1.74;100.00;95289.25;4955495;29;20023;-81
2021/12/14 09:40:14;;;;;;;29.13;21.55;;;;;;;1.78;100.00;95332.34;4942989;29;20042;-81
2021/12/14 09:42:41;;;;;;;30.83;21.73;;;;;;;1.86;100.00;95296.06;4961413;28;20083;-82
2021/12/14 09:45:42;;;;;;;31.08;22.02;;;;;;;1.91;100.00;95282.03;5110005;23;20101;-80
2021/12/14 09:48:10;;;;;;;27.75;20.45;;;;;;;2.37;100.00;95274.41;4921882;29;20040;-80
2021/12/14 09:50:36;;;;;;;25.58;20.33;;;;;;;2.03;100.00;95282.88;4917873;29;20032;-80
2021/12/14 09:53:05;;;;;;;32.95;24.25;;;;;;;2.21;100.00;95314.78;4915360;29;20032;-78
2021/12/14 09:55:34;;;;;;;30.13;23.73;;;;;;;2.52;100.00;95286.03;4888932;29;20032;-79
2021/12/14 09:58:05;;;;;;;26.05;21.27;;;;;;;2.31;100.00;95307.25;4887448;29;20036;-79
2021/12/14 10:00:35;;;;;;;29.45;23.20;;;;;;;2.32;100.00;95312.22;4882925;29;20038;-81
2021/12/14 10:03:01;;;;;;;;;;;;;;;2.33;100.00;95308.75;4908542;29;20097;-81
2021/12/14 10:05:47;;;;;;;26.77;21.23;;;;;;;2.26;100.00;95304.19;4869151;29;19915;-82
2021/12/14 10:08:19;;;;;;;26.60;22.33;;;;;;;1.96;100.00;95266.38;4883085;29;20123;-82
2021/12/14 10:10:53;;;;;;;24.95;21.65;;;;;;;2.18;100.00;95263.91;4869361;29;20559;-82
2021/12/14 10:13:19;;;;;;;25.58;22.15;;;;;;;2.43;100.00;95279.06;4860911;29;20032;-78
2021/12/14 10:15:50;;;;;;;32.97;23.88;;;;;;;2.20;100.00;95284.22;4860551;29;20033;-80
2021/12/14 10:18:23;;;;;;;28.27;23.02;;;;;;;2.07;100.00;95272.34;4863509;29;20036;-79
2021/12/14 10:21:03;;;;;;;26.58;21.40;;;;;;;2.26;100.00;95276.09;4896807;29;20037;-79
2021/12/14 10:23:30;;;;;;;25.67;21.52;;;;;;;2.35;100.00;95273.69;4898513;29;20041;-82
2021/12/14 10:25:57;;;;;;;26.63;20.75;;;;;;;2.19;100.00;95257.84;4881653;29;20029;-82
2021/12/14 10:28:26;;;;;;;28.33;22.77;;;;;;;2.29;100.00;95256.25;4841976;29;20029;-79
2021/12/14 10:30:58;;;;;;;26.58;21.15;;;;;;;2.27;100.00;95280.28;4885589;29;20025;-79
2021/12/14 10:33:26;;;;;;;28.35;21.73;;;;;;;2.32;100.00;95268.81;4863629;29;20108;-77
2021/12/14 10:35:56;;;;;;;32.55;22.33;;;;;;;2.44;100.00;95282.44;4879260;29;20036;-77
2021/12/14 10:38:31;;;;;;;30.05;21.30;;;;;;;2.48;100.00;95279.53;4892889;29;20101;-77
2021/12/14 10:44:26;;;;;;;34.30;25.83;;;;;;;2.02;100.00;95238.66;5122779;28;20051;-77
2021/12/14 10:46:53;;;;;;;33.65;25.42;;;;;;;2.24;100.00;95298.41;5121797;28;20031;-76
2021/12/14 10:49:21;;;;;;;38.20;27.48;;;;;;;2.25;100.00;95277.06;5127575;28;20081;-78
2021/12/14 10:51:51;;;;;;;32.35;24.88;;;;;;;2.39;100.00;95300.66;5146478;27;20035;-78
2021/12/14 10:54:17;;;;;;;35.78;24.50;;;;;;;2.12;100.00;95260.03;5133101;28;20054;-80
2021/12/14 10:56:51;;;;;;;28.90;22.70;;;;;;;2.33;100.00;95292.63;5118813;28;20015;-79
2021/12/14 10:59:20;;;;;;;29.27;22.48;;;;;;;2.07;100.00;95249.38;5134524;28;20031;-77
2021/12/14 11:01:50;;;;;;;30.65;23.15;;;;;;;1.95;100.00;95263.03;5130493;28;20019;-79
2021/12/14 11:04:18;;;;;;;29.00;23.00;;;;;;;2.21;100.00;95252.66;5125698;28;20028;-79
2021/12/14 11:06:46;;;;;;;27.08;21.98;;;;;;;2.00;100.00;95244.81;5126413;28;20036;-78
2021/12/14 11:12:08;;;;;;;27.10;20.20;;;;;;;2.14;100.00;95244.63;5136821;28;20531;-80
2021/12/14 11:14:37;;;;;;;24.50;19.48;;;;;;;2.18;100.00;95235.00;5154296;27;20031;-79
2021/12/14 11:20:00;;;;;;;25.15;18.55;;;;;;;2.01;100.00;95229.38;5139311;28;20115;-80
2021/12/14 11:22:41;;;;;;;22.60;17.23;;;;;;;1.77;100.00;95236.25;5130135;28;20024;-80
2021/12/14 11:25:16;;;;;;;23.65;18.60;;;;;;;1.92;100.00;95247.13;5112813;28;20426;-78
2021/12/14 11:27:51;;;;;;;19.52;16.08;;;;;;;2.29;100.00;95280.97;5133899;28;20040;-80
2021/12/14 11:30:24;;;;;;;18.73;14.80;;;;;;;2.10;100.00;95269.56;5116270;28;20062;-79
2021/12/14 11:33:13;;;;;;;19.20;15.38;;;;;;;1.75;100.00;95257.72;5117492;28;20016;-80
2021/12/14 11:38:35;;;;;;;15.93;14.23;;;;;;;1.91;100.00;95284.59;5161193;22;20331;-79
2021/12/14 11:41:19;;;;;;;16.75;12.90;;;;;;;1.69;100.00;95242.84;5075910;28;20041;-80
2021/12/14 11:44:17;;;;;;;13.35;11.60;;;;;;;1.68;100.00;95225.91;5092930;28;20032;-79
2021/12/14 11:46:55;;;;;;;15.02;12.88;;;;;;;1.95;100.00;95280.91;5092489;28;20029;-79
2021/12/14 11:49:23;;;;;;;11.82;10.07;;;;;;;1.68;100.00;95262.44;5092009;28;20032;-78
2021/12/14 11:51:50;;;;;;;11.63;10.32;;;;;;;1.98;100.00;95295.19;5069654;28;20076;-79
2021/12/14 11:56:51;;;;;;;12.00;9.23;;;;;;;2.06;100.00;95282.66;5375866;22;19911;-79
2021/12/14 11:59:29;;;;;;;11.93;10.63;;;;;;;1.94;100.00;95275.91;5046361;28;20076;-78
2021/12/14 12:02:12;;;;;;;9.15;8.32;;;;;;;1.74;100.00;95230.56;5063898;28;20048;-80
2021/12/14 12:05:38;;;;;;;8.57;7.80;;;;;;;1.70;100.00;95235.09;5066936;28;20039;-79
2021/12/14 12:11:05;;;;;;;10.73;9.48;;;;;;;1.84;100.00;95273.19;5061790;28;20021;-79
2021/12/14 12:16:12;;;;;;;8.15;7.43;;;;;;;1.68;100.00;95225.91;5829244;22;20040;-79
2021/12/14 12:18:41;;;;;;;6.35;5.82;;;;;;;1.58;100.00;95218.91;5079515;28;20024;-80
2021/12/14 12:21:09;;;;;;;6.60;6.10;;;;;;;2.00;100.00;95271.16;5077201;28;20101;-80
2021/12/14 12:23:34;;;;;;;7.07;6.30;;;;;;;1.78;100.00;95243.00;5079981;28;20056;-81
2021/12/14 12:26:09;;;;;;;6.75;6.07;;;;;;;2.09;100.00;95255.16;5079926;28;20067;-81
2021/12/14 12:28:55;;;;;;;6.77;6.17;;;;;;;1.89;100.00;95214.16;5046635;28;20018;-82
2021/12/14 12:31:24;;;;;;;7.13;6.40;;;;;;;1.93;100.00;95212.97;5075829;28;20053;-81
2021/12/14 12:39:22;;;;;;;7.35;6.65;;;;;;;1.85;100.00;95194.88;5218661;22;20062;-80
2021/12/14 12:41:58;;;;;;;7.18;6.47;;;;;;;1.92;100.00;95217.28;4980659;28;20089;-80
2021/12/14 12:44:27;;;;;;;6.45;5.95;;;;;;;1.99;100.00;95198.03;4999592;28;20039;-80
2021/12/14 12:47:11;;;;;;;8.02;7.22;;;;;;;2.50;100.00;95262.34;5000445;28;20040;-78
2021/12/14 12:49:49;;;;;;;9.70;8.30;;;;;;;2.53;100.00;95257.00;5000999;28;20034;-79
2021/12/14 12:52:26;;;;;;;10.40;9.38;;;;;;;2.49;100.00;95250.50;5002429;28;20018;-79
2021/12/14 12:54:52;;;;;;;13.40;9.75;;;;;;;2.47;100.00;95254.88;4998282;28;20023;-79
2021/12/14 12:57:30;;;;;;;9.10;8.25;;;;;;;1.87;100.00;95200.66;5001294;28;20014;-79
2021/12/14 13:00:36;;;;;;;9.70;8.52;;;;;;;2.05;100.00;95229.97;5018729;28;20074;-79
2021/12/14 13:03:13;;;;;;;9.15;8.30;;;;;;;1.91;100.00;95225.06;5016157;28;20022;-79
2021/12/14 13:05:55;;;;;;;10.65;9.48;;;;;;;1.82;100.00;95207.84;5003506;28;20006;-79
2021/12/14 13:08:25;;;;;;;12.00;10.13;;;;;;;1.81;100.00;95206.22;5002851;28;20018;-79
2021/12/14 13:10:56;;;;;;;14.95;12.20;;;;;;;1.77;100.00;95207.34;5009736;28;20010;-78
2021/12/14 13:13:25;;;;;;;15.63;13.63;;;;;;;2.10;100.00;95267.00;5009114;28;20094;-80
2021/12/14 13:15:56;;;;;;;22.33;16.42;;;;;;;2.07;100.00;95276.63;5007862;28;20037;-81
2021/12/14 13:18:24;;;;;;;22.65;18.83;;;;;;;2.14;100.00;95270.16;5016319;28;20031;-81
2021/12/14 13:20:54;;;;;;;25.13;20.05;;;;;;;1.85;100.00;95244.19;5016065;28;20041;-80
2021/12/14 13:23:23;;;;;;;26.85;18.60;;;;;;;1.93;100.00;95275.06;5121349;22;20033;-79
2021/12/14 13:28:40;;;;;;;27.92;20.63;;;;;;;1.75;100.00;95221.97;5040906;23;20047;-79
2021/12/14 13:36:16;;;;;;;39.47;27.38;;;;;;;2.01;100.00;95269.41;5028315;23;20061;-79
2021/12/14 13:38:42;;;;;;;35.72;23.33;;;;;;;2.08;100.00;95258.66;4973578;28;20059;-78
2021/12/14 13:41:21;;;;;;;34.45;25.25;;;;;;;1.90;100.00;95256.59;4958599;28;20018;-79
2021/12/14 13:43:47;;;;;;;36.35;26.13;;;;;;;1.77;100.00;95238.00;4982694;28;20014;-81
2021/12/14 13:46:12;;;;;;;35.17;25.98;;;;;;;1.65;100.00;95226.13;4966866;28;20019;-79
2021/12/14 13:48:41;;;;;;;35.08;24.73;;;;;;;1.66;100.00;95248.16;4982508;28;20026;-79
2021/12/14 13:51:21;;;;;;;37.08;27.95;;;;;;;1.71;100.00;95263.97;4981682;28;20035;-80
2021/12/14 14:04:09;;;;;;;39.30;29.33;;;;;;;1.79;100.00;95293.13;5386581;23;20059;-77
2021/12/14 14:06:36;;;;;;;38.38;27.77;;;;;;;1.72;100.00;95303.88;4955693;28;20122;-77
2021/12/14 14:09:12;;;;;;;46.33;31.08;;;;;;;1.80;100.00;95311.81;4956107;28;20062;-77
2021/12/14 14:11:41;;;;;;;39.40;28.45;;;;;;;1.92;100.00;95309.22;4957405;28;20185;-77
2021/12/14 14:14:16;;;;;;;39.00;28.52;;;;;;;1.88;100.00;95309.53;4959170;28;20023;-77
2021/12/14 14:16:55;;;;;;;41.25;27.30;;;;;;;1.79;100.00;95315.28;4958843;28;20059;-78
2021/12/14 14:19:25;;;;;;;40.08;26.88;;;;;;;1.92;100.00;95309.22;4939595;28;20116;-77
2021/12/14 14:22:01;;;;;;;43.58;29.83;;;;;;;1.79;100.00;95315.28;4956805;28;20023;-78
2021/12/14 14:24:32;;;;;;;40.67;28.25;;;;;;;1.59;100.00;95314.97;4935165;28;20075;-78
2021/12/14 14:26:58;;;;;;;40.00;27.00;;;;;;;1.70;100.00;95305.75;4945852;29;20031;-78
2021/12/14 14:29:25;;;;;;;38.38;26.05;;;;;;;1.67;100.00;95305.97;4939228;29;20102;-78
2021/12/14 14:32:07;;;;;;;40.83;29.23;;;;;;;1.69;100.00;95312.56;4946449;28;20042;-78
2021/12/14 14:34:37;;;;;;;44.72;29.27;;;;;;;1.78;100.00;95326.41;4940957;28;20045;-78
2021/12/14 14:37:05;;;;;;;61.78;38.13;;;;;;;1.77;100.00;95324.78;4945833;29;20031;-78
2021/12/14 14:39:43;;;;;;;63.72;40.28;;;;;;;1.75;100.00;95319.78;4956834;28;20527;-77
2021/12/14 14:42:14;;;;;;;64.63;42.88;;;;;;;1.70;100.00;95304.00;4947716;28;20027;-77
2021/12/14 14:44:40;;;;;;;50.15;33.05;;;;;;;1.73;100.00;95314.00;4950916;28;20023;-78
2021/12/14 14:47:27;;;;;;;43.25;30.13;;;;;;;1.74;100.00;95327.53;4951462;29;20054;-78
2021/12/14 14:49:54;;;;;;;45.85;30.50;;;;;;;1.69;100.00;95324.50;4944433;28;20031;-78
2021/12/14 14:52:31;;;;;;;48.15;34.15;;;;;;;1.71;100.00;95327.75;4956814;28;20033;-79
2021/12/14 14:55:03;;;;;;;43.30;31.48;;;;;;;1.70;100.00;95333.81;4928447;28;20026;-76
2021/12/14 14:57:28;;;;;;;48.13;31.33;;;;;;;1.68;100.00;95335.63;4950206;28;20027;-76
2021/12/14 14:59:54;;;;;;;46.65;31.33;;;;;;;1.73;100.00;95343.81;4927759;29;20507;-76
2021/12/14 15:02:43;;;;;;;47.50;34.20;;;;;;;1.65;100.00;95341.78;4967160;28;20039;-76
2021/12/14 15:05:13;;;;;;;42.25;29.23;;;;;;;1.68;100.00;95335.63;4965194;28;20101;-76
2021/12/14 15:07:58;;;;;;;48.63;32.75;;;;;;;1.67;100.00;95339.13;4933420;28;20058;-76
2021/12/14 15:10:35;;;;;;;45.58;32.55;;;;;;;1.75;100.00;95341.94;4951744;28;20330;-76
2021/12/14 15:13:29;;;;;;;39.95;30.25;;;;;;;1.63;100.00;95338.53;4968463;28;20027;-76
2021/12/14 15:15:56;;;;;;;48.63;30.80;;;;;;;1.67;100.00;95326.38;4933068;28;20093;-76
2021/12/14 15:18:55;;;;;;;44.08;29.73;;;;;;;1.72;100.00;95337.88;4969904;28;20033;-77
2021/12/14 15:21:35;;;;;;;46.67;31.25;;;;;;;1.70;100.00;95333.81;4963452;28;20065;-76
2021/12/14 15:24:28;;;;;;;41.75;28.75;;;;;;;1.73;100.00;95336.97;4971904;28;20019;-79
2021/12/14 15:27:05;;;;;;;46.15;30.92;;;;;;;1.65;100.00;95334.13;4949788;28;20043;-79
2021/12/14 15:29:32;;;;;;;42.00;27.67;;;;;;;1.71;100.00;95341.34;4962074;29;20032;-80
2021/12/14 15:32:16;;;;;;;43.63;27.85;;;;;;;1.64;100.00;95344.44;4972130;28;20023;-80
2021/12/14 15:35:15;;;;;;;42.00;28.67;;;;;;;1.57;100.00;95334.66;4997000;28;20023;-80
2021/12/14 15:37:48;;;;;;;47.50;30.98;;;;;;;1.47;100.00;95312.44;4954107;28;20028;-80
2021/12/14 15:40:26;;;;;;;41.75;28.00;;;;;;;1.66;100.00;95356.19;5300235;23;20118;-78
2021/12/14 15:42:55;;;;;;;44.45;29.17;;;;;;;1.70;100.00;95352.50;4958324;29;20057;-78
2021/12/14 15:45:52;;;;;;;42.88;29.13;;;;;;;1.41;100.00;95307.78;4977724;29;20023;-79
2021/12/14 15:51:12;;;;;;;42.72;30.30;;;;;;;1.69;100.00;95362.81;5042287;23;20058;-79
2021/12/14 15:53:42;;;;;;;48.28;31.45;;;;;;;1.36;100.00;95310.63;4980715;28;20051;-79
2021/12/14 15:56:13;;;;;;;46.13;30.05;;;;;;;1.73;100.00;95354.00;4963242;28;20031;-79
2021/12/14 15:58:41;;;;;;;41.95;28.58;;;;;;;1.75;100.00;95352.16;4961113;29;20063;-79
2021/12/14 16:01:14;;;;;;;38.90;27.27;;;;;;;1.39;100.00;95291.75;4948070;28;20037;-78
2021/12/14 16:03:40;;;;;;;38.78;27.45;;;;;;;1.37;100.00;95291.88;4975478;28;20058;-77
2021/12/14 16:06:06;;;;;;;38.67;27.38;;;;;;;1.70;100.00;95347.41;4970177;28;20022;-78
2021/12/14 16:08:33;;;;;;;39.42;28.35;;;;;;;1.34;100.00;95304.03;4959279;28;20023;-77
2021/12/14 16:11:18;;;;;;;40.42;28.33;;;;;;;1.26;100.00;95304.53;4972695;28;20053;-77
2021/12/14 16:16:33;;;;;;;38.90;25.15;;;;;;;1.42;100.00;95327.25;4980976;28;20022;-79
2021/12/14 16:18:58;;;;;;;37.25;26.52;;;;;;;1.65;100.00;95361.38;4973097;28;20036;-78
2021/12/14 16:21:25;;;;;;;37.20;26.20;;;;;;;1.25;100.00;95300.38;4968259;28;20058;-78
2021/12/14 16:23:53;;;;;;;35.97;24.90;;;;;;;1.47;100.00;95338.78;4987361;28;20059;-78
2021/12/14 16:26:20;;;;;;;37.53;27.98;;;;;;;1.27;100.00;95307.91;4977892;28;20030;-78
2021/12/14 16:28:50;;;;;;;36.13;27.95;;;;;;;1.65;100.00;95369.84;4951664;29;20035;-78
2021/12/14 16:31:26;;;;;;;39.25;27.45;;;;;;;1.45;100.00;95332.97;4957218;28;20027;-78
2021/12/14 16:33:57;;;;;;;40.30;25.40;;;;;;;1.54;100.00;95349.38;4970353;29;20046;-78
2021/12/14 16:36:26;;;;;;;31.45;23.13;;;;;;;1.28;100.00;95309.56;4975296;28;20018;-79
2021/12/14 16:39:08;;;;;;;33.05;23.20;;;;;;;1.39;100.00;95327.47;4969790;28;20038;-80
2021/12/14 16:41:37;;;;;;;37.22;24.80;;;;;;;1.34;100.00;95315.03;4971937;28;20047;-78
2021/12/14 16:44:08;;;;;;;37.08;25.23;;;;;;;1.36;100.00;95330.22;4977170;28;20042;-78
2021/12/14 16:46:41;;;;;;;32.60;23.63;;;;;;;1.60;100.00;95346.41;4992294;28;20027;-80
2021/12/14 16:49:11;;;;;;;42.70;29.08;;;;;;;1.34;100.00;95337.19;4976235;28;20035;-79
2021/12/14 16:51:37;;;;;;;41.10;26.98;;;;;;;1.34;100.00;95319.31;4962672;28;20017;-79
2021/12/14 16:54:11;;;;;;;40.15;27.10;;;;;;;1.60;100.00;95371.91;4974088;28;20041;-79
2021/12/14 16:56:39;;;;;;;37.67;25.58;;;;;;;1.20;100.00;95311.78;4995779;28;20039;-79
2021/12/14 16:59:17;;;;;;;36.85;25.42;;;;;;;1.46;100.00;95354.19;4980509;28;20027;-79
2021/12/14 17:01:51;;;;;;;36.80;26.30;;;;;;;1.40;100.00;95354.63;4973829;28;20038;-81
2021/12/14 17:06:57;;;;;;;39.22;27.77;;;;;;;1.17;100.00;95328.13;5861536;23;20059;-78
2021/12/14 17:09:24;;;;;;;30.33;23.55;;;;;;;1.17;100.00;95343.44;4979308;28;20059;-78
2021/12/14 17:11:52;;;;;;;29.55;21.55;;;;;;;1.26;100.00;95353.00;4966071;28;20022;-80
2021/12/14 17:19:29;;;;;;;37.60;22.30;;;;;;;1.02;100.00;95332.56;5292155;23;20030;-78
2021/12/14 17:22:25;;;;;;;35.25;20.38;;;;;;;1.33;100.00;95392.47;5019521;28;20031;-79
2021/12/14 17:24:59;;;;;;;31.20;18.50;;;;;;;0.99;100.00;95339.59;5018669;28;20014;-79
2021/12/14 17:27:31;;;;;;;22.92;17.70;;;;;;;1.03;100.00;95341.00;5019172;28;20037;-79
2021/12/14 17:30:01;;;;;;;21.50;15.07;;;;;;;1.29;100.00;95385.13;5018802;28;20130;-80
2021/12/14 17:32:29;;;;;;;22.75;15.82;;;;;;;1.07;100.00;95365.38;5002885;28;20006;-80
2021/12/14 17:35:07;;;;;;;27.95;20.30;;;;;;;0.88;100.00;95336.94;5001350;28;20018;-80
2021/12/14 17:37:38;;;;;;;36.88;24.33;;;;;;;0.88;100.00;95347.13;5018658;28;20026;-80
2021/12/14 17:40:06;;;;;;;49.10;31.25;;;;;;;1.33;100.00;95394.22;5002991;28;20014;-80
2021/12/14 17:42:34;;;;;;;52.47;33.20;;;;;;;1.30;100.00;95396.97;5018702;28;20028;-80
2021/12/14 17:45:09;;;;;;;51.08;34.05;;;;;;;1.27;100.00;95402.28;5013552;28;20017;-79
2021/12/14 17:47:41;;;;;;;51.38;33.72;;;;;;;1.16;100.00;95374.94;5001091;28;20019;-80
2021/12/14 17:50:19;;;;;;;52.88;33.60;;;;;;;1.35;100.00;95405.94;4997630;28;20042;-80
2021/12/14 17:52:50;;;;;;;53.45;36.88;;;;;;;0.81;100.00;95349.25;4984936;28;20015;-80
2021/12/14 17:58:18;;;;;;;46.15;30.10;;;;;;;1.15;100.00;95387.81;4132528;26;20078;-83